Bw Argon — 2JAB4 — position and weather

sailwx.info

Track history (hours):
 
Tides and Currents Weather Stations Pressure Air Temp Water Temp Dewpoint Dewpoint Depression Visibility Wind Speed Wind Dir Waves Ship Positions

Bw Argon

Last reported at 2017-Oct-18 20:58 UTC. Time now 2017-Oct-20 14:13 UTC.
Position N 49°48' W 005°43'.

Length 147 m; draft 9.8 m.

Type: Ship (hazmat cat B). MMSI: 235114185.

Date/timePositionNaut miles runAvg speedWind from/ knotsBaromVisibWave heightAir tempDewpointWater temp
2017-Oct-18 20:58N 49°48' W 005°43'1912.5
2017-Oct-18 19:25N 49°48' W 005°13'511.5
2017-Oct-18 18:58N 49°49' W 005°05'610.7
2017-Oct-18 18:26N 49°50' W 004°56'1412.2
2017-Oct-18 17:16N 49°52' W 004°34'312.1
2017-Oct-18 17:00N 49°52' W 004°29'1012.2
2017-Oct-18 16:13N 49°53' W 004°14'312.4
2017-Oct-18 16:00N 49°54' W 004°10'612.6
2017-Oct-18 15:30N 49°54' W 004°01'712.9
2017-Oct-18 14:59N 49°55' W 003°50'1313.7
2017-Oct-18 14:00N 49°57' W 003°30'714.6
2017-Oct-18 13:30N 49°59' W 003°19'815.2
2017-Oct-18 13:00N 50°00' W 003°07'815.7
2017-Oct-18 12:29N 50°02' W 002°54'7912.8
2017-Oct-18 06:20N 50°20' W 000°55'411.2
2017-Oct-18 06:00N 50°21' W 000°49'2012.6
2017-Oct-18 04:25N 50°27' W 000°19'614.1
2017-Oct-18 04:00N 50°29' W 000°11'714.5
2017-Oct-18 03:30N 50°31' E 000°00'714.9
2017-Oct-18 03:00N 50°32' E 000°12'815.1
2017-Oct-18 02:30N 50°34' E 000°23'714.9
2017-Oct-18 02:01N 50°36' E 000°35'714.4
2017-Oct-18 01:31N 50°40' E 000°44'714.0
2017-Oct-18 01:00N 50°44' E 000°53'713.3
2017-Oct-18 00:30N 50°47' E 001°02'612.6
2017-Oct-18 00:00N 50°51' E 001°11'711.7
2017-Oct-17 23:22N 50°56' E 001°20'610.8
2017-Oct-17 22:49N 51°00' E 001°26'310.6
2017-Oct-17 22:30N 51°03' E 001°29'510.5
2017-Oct-17 22:00N 51°06' E 001°35'611.1
2017-Oct-17 21:30N 51°10' E 001°41'612.0
2017-Oct-17 21:00N 51°15' E 001°47'713.4
2017-Oct-17 20:30N 51°21' E 001°51'714.3
2017-Oct-17 20:00N 51°28' E 001°56'815.2
2017-Oct-17 19:30N 51°33' E 002°05'815.4
2017-Oct-17 19:00N 51°39' E 002°13'815.3
2017-Oct-17 18:29N 51°45' E 002°22'1214.6
2017-Oct-17 17:38N 51°54' E 002°35'414.4
2017-Oct-17 17:21N 51°58' E 002°36'614.0
2017-Oct-17 16:55N 52°04' E 002°37'613.5
2017-Oct-17 16:28N 52°10' E 002°37'612.9
2017-Oct-17 16:00N 52°16' E 002°41'36811.5
2017-Oct-16 08:02N 57°31' E 008°10'212.8
2017-Oct-16 07:51N 57°33' E 008°13'912.7
2017-Oct-16 07:09N 57°35' E 008°29'212.5
2017-Oct-16 06:57N 57°36' E 008°33'1112.6
2017-Oct-16 06:03N 57°39' E 008°53'112.4
2017-Oct-16 05:59N 57°40' E 008°55'1012.2
2017-Oct-16 05:09N 57°43' E 009°13'3112.2
2017-Oct-16 02:36N 57°51' E 010°09'311.9
2017-Oct-16 02:22N 57°51' E 010°15'411.9
2017-Oct-16 02:01N 57°50' E 010°23'611.6
2017-Oct-16 01:30N 57°50' E 010°34'7 9.7
2017-Oct-16 00:49N 57°48' E 010°46'2 5.6
2017-Oct-16 00:30N 57°46' E 010°46'4 7.9
2017-Oct-16 00:00N 57°43' E 010°44'2 4.6
2017-Oct-15 23:31N 57°42' E 010°40'0 0.2
2017-Oct-15 22:58N 57°42' E 010°40'0 0.0
2017-Oct-15 22:25N 57°42' E 010°40'0 0.0
2017-Oct-15 21:55N 57°42' E 010°40'0 0.0
2017-Oct-15 21:28N 57°42' E 010°40'0 0.0
2017-Oct-15 20:19N 57°42' E 010°40'0 0.1
2017-Oct-15 19:58N 57°42' E 010°40'0 0.0
2017-Oct-15 19:25N 57°42' E 010°40'1 1.4
2017-Oct-15 19:00N 57°42' E 010°41'2 3.8
2017-Oct-15 18:30N 57°42' E 010°45'611.1
2017-Oct-15 18:00N 57°40' E 010°54'612.8
2017-Oct-15 17:30N 57°38' E 011°06'713.2
2017-Oct-15 17:00N 57°34' E 011°14'713.3
2017-Oct-15 16:30N 57°29' E 011°24'612.9
2017-Oct-15 16:00N 57°23' E 011°29'713.3
2017-Oct-15 15:30N 57°17' E 011°33'1012.9
2017-Oct-15 14:42N 57°07' E 011°39'10511.8
2017-Oct-15 05:48N 55°24' E 010°60'412.2
2017-Oct-15 05:30N 55°21' E 011°02'712.1
2017-Oct-15 04:56N 55°15' E 011°06'511.9
2017-Oct-15 04:29N 55°09' E 011°03'612.7
2017-Oct-15 03:59N 55°03' E 011°02'611.9
2017-Oct-15 03:31N 54°58' E 010°57'612.4
2017-Oct-15 03:00N 54°53' E 010°51'612.2
2017-Oct-15 02:31N 54°47' E 010°49'510.8
2017-Oct-15 02:01N 54°42' E 010°47'4 8.6
2017-Oct-15 01:31N 54°39' E 010°52'611.7
2017-Oct-15 01:01N 54°36' E 011°01'612.0
2017-Oct-15 00:31N 54°35' E 011°11'612.7
2017-Oct-15 00:01N 54°33' E 011°21'612.7
2017-Oct-14 23:30N 54°30' E 011°31'713.1
2017-Oct-14 23:01N 54°27' E 011°41'712.9
2017-Oct-14 22:26N 54°26' E 011°54'613.1
2017-Oct-14 22:01N 54°26' E 012°03'611.5
2017-Oct-14 21:30N 54°28' E 012°12'713.1
2017-Oct-14 21:01N 54°35' E 012°16'3112.9
2017-Oct-14 18:36N 54°50' E 013°02'313.3
2017-Oct-14 18:22N 54°52' E 013°07'2213.0
2017-Oct-14 16:39N 54°59' E 013°43'412.9
2017-Oct-14 16:23N 55°00' E 013°49'913.0
2017-Oct-14 15:41N 55°03' E 014°03'312.5
2017-Oct-14 15:29N 55°05' E 014°07'613.1
2017-Oct-14 15:01N 55°10' E 014°13'912.9
2017-Oct-14 14:20N 55°17' E 014°22'712.9
2017-Oct-14 13:47N 55°23' E 014°30'412.8
2017-Oct-14 13:30N 55°25' E 014°35'813.1
2017-Oct-14 12:52N 55°30' E 014°47'512.9
2017-Oct-14 12:29N 55°32' E 014°55'612.9
2017-Oct-14 11:59N 55°35' E 015°05'612.8
2017-Oct-14 11:31N 55°37' E 015°15'612.9
2017-Oct-14 11:01N 55°38' E 015°26'612.9
2017-Oct-14 10:30N 55°40' E 015°37'612.8
2017-Oct-14 10:00N 55°42' E 015°48'613.0
2017-Oct-14 09:31N 55°44' E 015°59'612.8
2017-Oct-14 09:01N 55°46' E 016°10'712.9
2017-Oct-14 08:30N 55°47' E 016°21'26210.9
2017-Oct-13 08:26N 59°48' E 019°37'913.1
2017-Oct-13 07:45N 59°55' E 019°27'413.4
2017-Oct-13 07:29N 59°58' E 019°22'713.4
2017-Oct-13 06:59N 60°03' E 019°14'613.4
2017-Oct-13 06:30N 60°08' E 019°05'612.7
2017-Oct-13 06:00N 60°14' E 019°00'713.5
2017-Oct-13 05:30N 60°21' E 019°00'  
2017-Oct-09 23:56N 60°25' E 019°01'613.1
2017-Oct-09 23:27N 60°19' E 019°01'613.0
2017-Oct-09 23:00N 60°13' E 019°04'713.4
2017-Oct-09 22:30N 60°08' E 019°12'713.9
2017-Oct-09 22:00N 60°03' E 019°21'814.3
2017-Oct-09 21:26N 59°56' E 019°31'614.1
2017-Oct-09 21:00N 59°51' E 019°39'714.0
2017-Oct-09 20:30N 59°46' E 019°48'  
Track history (hours):
 
Tides and Currents Weather Stations Pressure Air Temp Water Temp Dewpoint Dewpoint Depression Visibility Wind Speed Wind Dir Waves Ship Positions

Bw Argon

Last reported at 2017-Oct-18 20:58 UTC. Time now 2017-Oct-20 14:13 UTC.
Position N 49°48' W 005°43'.

Length 147 m; draft 9.8 m.

Type: Ship (hazmat cat B). MMSI: 235114185.

Date/timePositionNaut miles runAvg speedWind from/ knotsBaromVisibWave heightAir tempDewpointWater temp
2017-Oct-18 20:58N 49°48' W 005°43'1912.5
2017-Oct-18 19:25N 49°48' W 005°13'511.5
2017-Oct-18 18:58N 49°49' W 005°05'610.7
2017-Oct-18 18:26N 49°50' W 004°56'1412.2
2017-Oct-18 17:16N 49°52' W 004°34'312.1
2017-Oct-18 17:00N 49°52' W 004°29'1012.2
2017-Oct-18 16:13N 49°53' W 004°14'312.4
2017-Oct-18 16:00N 49°54' W 004°10'612.6
2017-Oct-18 15:30N 49°54' W 004°01'712.9
2017-Oct-18 14:59N 49°55' W 003°50'1313.7
2017-Oct-18 14:00N 49°57' W 003°30'714.6
2017-Oct-18 13:30N 49°59' W 003°19'815.2
2017-Oct-18 13:00N 50°00' W 003°07'815.7
2017-Oct-18 12:29N 50°02' W 002°54'7912.8
2017-Oct-18 06:20N 50°20' W 000°55'411.2
2017-Oct-18 06:00N 50°21' W 000°49'2012.6
2017-Oct-18 04:25N 50°27' W 000°19'614.1
2017-Oct-18 04:00N 50°29' W 000°11'714.5
2017-Oct-18 03:30N 50°31' E 000°00'714.9
2017-Oct-18 03:00N 50°32' E 000°12'815.1
2017-Oct-18 02:30N 50°34' E 000°23'714.9
2017-Oct-18 02:01N 50°36' E 000°35'714.4
2017-Oct-18 01:31N 50°40' E 000°44'714.0
2017-Oct-18 01:00N 50°44' E 000°53'713.3
2017-Oct-18 00:30N 50°47' E 001°02'612.6
2017-Oct-18 00:00N 50°51' E 001°11'711.7
2017-Oct-17 23:22N 50°56' E 001°20'610.8
2017-Oct-17 22:49N 51°00' E 001°26'310.6
2017-Oct-17 22:30N 51°03' E 001°29'510.5
2017-Oct-17 22:00N 51°06' E 001°35'611.1
2017-Oct-17 21:30N 51°10' E 001°41'612.0
2017-Oct-17 21:00N 51°15' E 001°47'713.4
2017-Oct-17 20:30N 51°21' E 001°51'714.3
2017-Oct-17 20:00N 51°28' E 001°56'815.2
2017-Oct-17 19:30N 51°33' E 002°05'815.4
2017-Oct-17 19:00N 51°39' E 002°13'815.3
2017-Oct-17 18:29N 51°45' E 002°22'1214.6
2017-Oct-17 17:38N 51°54' E 002°35'414.4
2017-Oct-17 17:21N 51°58' E 002°36'614.0
2017-Oct-17 16:55N 52°04' E 002°37'613.5
2017-Oct-17 16:28N 52°10' E 002°37'612.9
2017-Oct-17 16:00N 52°16' E 002°41'36811.5
2017-Oct-16 08:02N 57°31' E 008°10'212.8
2017-Oct-16 07:51N 57°33' E 008°13'912.7
2017-Oct-16 07:09N 57°35' E 008°29'212.5
2017-Oct-16 06:57N 57°36' E 008°33'1112.6
2017-Oct-16 06:03N 57°39' E 008°53'112.4
2017-Oct-16 05:59N 57°40' E 008°55'1012.2
2017-Oct-16 05:09N 57°43' E 009°13'3112.2
2017-Oct-16 02:36N 57°51' E 010°09'311.9
2017-Oct-16 02:22N 57°51' E 010°15'411.9
2017-Oct-16 02:01N 57°50' E 010°23'611.6
2017-Oct-16 01:30N 57°50' E 010°34'7 9.7
2017-Oct-16 00:49N 57°48' E 010°46'2 5.6
2017-Oct-16 00:30N 57°46' E 010°46'4 7.9
2017-Oct-16 00:00N 57°43' E 010°44'2 4.6
2017-Oct-15 23:31N 57°42' E 010°40'0 0.2
2017-Oct-15 22:58N 57°42' E 010°40'0 0.0
2017-Oct-15 22:25N 57°42' E 010°40'0 0.0
2017-Oct-15 21:55N 57°42' E 010°40'0 0.0
2017-Oct-15 21:28N 57°42' E 010°40'0 0.0
2017-Oct-15 20:19N 57°42' E 010°40'0 0.1
2017-Oct-15 19:58N 57°42' E 010°40'0 0.0
2017-Oct-15 19:25N 57°42' E 010°40'1 1.4
2017-Oct-15 19:00N 57°42' E 010°41'2 3.8
2017-Oct-15 18:30N 57°42' E 010°45'611.1
2017-Oct-15 18:00N 57°40' E 010°54'612.8
2017-Oct-15 17:30N 57°38' E 011°06'713.2
2017-Oct-15 17:00N 57°34' E 011°14'713.3
2017-Oct-15 16:30N 57°29' E 011°24'612.9
2017-Oct-15 16:00N 57°23' E 011°29'713.3
2017-Oct-15 15:30N 57°17' E 011°33'1012.9
2017-Oct-15 14:42N 57°07' E 011°39'10511.8
2017-Oct-15 05:48N 55°24' E 010°60'412.2
2017-Oct-15 05:30N 55°21' E 011°02'712.1
2017-Oct-15 04:56N 55°15' E 011°06'511.9
2017-Oct-15 04:29N 55°09' E 011°03'612.7
2017-Oct-15 03:59N 55°03' E 011°02'611.9
2017-Oct-15 03:31N 54°58' E 010°57'612.4
2017-Oct-15 03:00N 54°53' E 010°51'612.2
2017-Oct-15 02:31N 54°47' E 010°49'510.8
2017-Oct-15 02:01N 54°42' E 010°47'4 8.6
2017-Oct-15 01:31N 54°39' E 010°52'611.7
2017-Oct-15 01:01N 54°36' E 011°01'612.0
2017-Oct-15 00:31N 54°35' E 011°11'612.7
2017-Oct-15 00:01N 54°33' E 011°21'612.7
2017-Oct-14 23:30N 54°30' E 011°31'713.1
2017-Oct-14 23:01N 54°27' E 011°41'712.9
2017-Oct-14 22:26N 54°26' E 011°54'613.1
2017-Oct-14 22:01N 54°26' E 012°03'611.5
2017-Oct-14 21:30N 54°28' E 012°12'713.1
2017-Oct-14 21:01N 54°35' E 012°16'3112.9
2017-Oct-14 18:36N 54°50' E 013°02'313.3
2017-Oct-14 18:22N 54°52' E 013°07'2213.0
2017-Oct-14 16:39N 54°59' E 013°43'412.9
2017-Oct-14 16:23N 55°00' E 013°49'913.0
2017-Oct-14 15:41N 55°03' E 014°03'312.5
2017-Oct-14 15:29N 55°05' E 014°07'613.1
2017-Oct-14 15:01N 55°10' E 014°13'912.9
2017-Oct-14 14:20N 55°17' E 014°22'712.9
2017-Oct-14 13:47N 55°23' E 014°30'412.8
2017-Oct-14 13:30N 55°25' E 014°35'813.1
2017-Oct-14 12:52N 55°30' E 014°47'512.9
2017-Oct-14 12:29N 55°32' E 014°55'612.9
2017-Oct-14 11:59N 55°35' E 015°05'612.8
2017-Oct-14 11:31N 55°37' E 015°15'612.9
2017-Oct-14 11:01N 55°38' E 015°26'612.9
2017-Oct-14 10:30N 55°40' E 015°37'612.8
2017-Oct-14 10:00N 55°42' E 015°48'613.0
2017-Oct-14 09:31N 55°44' E 015°59'612.8
2017-Oct-14 09:01N 55°46' E 016°10'712.9
2017-Oct-14 08:30N 55°47' E 016°21'26210.9
2017-Oct-13 08:26N 59°48' E 019°37'913.1
2017-Oct-13 07:45N 59°55' E 019°27'413.4
2017-Oct-13 07:29N 59°58' E 019°22'713.4
2017-Oct-13 06:59N 60°03' E 019°14'613.4
2017-Oct-13 06:30N 60°08' E 019°05'612.7
2017-Oct-13 06:00N 60°14' E 019°00'713.5
2017-Oct-13 05:30N 60°21' E 019°00'  
2017-Oct-09 23:56N 60°25' E 019°01'613.1
2017-Oct-09 23:27N 60°19' E 019°01'613.0
2017-Oct-09 23:00N 60°13' E 019°04'713.4
2017-Oct-09 22:30N 60°08' E 019°12'713.9
2017-Oct-09 22:00N 60°03' E 019°21'814.3
2017-Oct-09 21:26N 59°56' E 019°31'614.1
2017-Oct-09 21:00N 59°51' E 019°39'714.0
2017-Oct-09 20:30N 59°46' E 019°48'  

Dump ship's entire track history